sensor_id;sensor_type;location;lat;lon;timestamp;P1;durP1;ratioP1;P2;durP2;ratioP2
76574;SDS011;65439;50.948;6.988;2023-04-06T00:01:16;14.20;;;9.03;;
76574;SDS011;65439;50.948;6.988;2023-04-06T00:03:41;15.23;;;9.97;;
76574;SDS011;65439;50.948;6.988;2023-04-06T00:06:06;12.00;;;9.10;;
76574;SDS011;65439;50.948;6.988;2023-04-06T00:08:32;12.97;;;9.63;;
76574;SDS011;65439;50.948;6.988;2023-04-06T00:10:58;13.10;;;9.13;;
76574;SDS011;65439;50.948;6.988;2023-04-06T00:13:23;17.27;;;9.63;;
76574;SDS011;65439;50.948;6.988;2023-04-06T00:15:48;12.55;;;9.32;;
76574;SDS011;65439;50.948;6.988;2023-04-06T00:18:14;18.40;;;9.93;;
76574;SDS011;65439;50.948;6.988;2023-04-06T00:20:39;16.40;;;8.50;;
76574;SDS011;65439;50.948;6.988;2023-04-06T00:23:05;13.70;;;8.88;;
76574;SDS011;65439;50.948;6.988;2023-04-06T00:25:30;12.45;;;8.30;;
76574;SDS011;65439;50.948;6.988;2023-04-06T00:27:56;11.87;;;8.40;;
76574;SDS011;65439;50.948;6.988;2023-04-06T00:30:21;14.80;;;8.95;;
76574;SDS011;65439;50.948;6.988;2023-04-06T00:32:46;11.80;;;9.75;;
76574;SDS011;65439;50.948;6.988;2023-04-06T00:35:12;14.70;;;9.50;;
76574;SDS011;65439;50.948;6.988;2023-04-06T00:37:37;12.82;;;9.15;;
76574;SDS011;65439;50.948;6.988;2023-04-06T00:40:02;13.20;;;9.53;;
76574;SDS011;65439;50.948;6.988;2023-04-06T00:42:28;12.35;;;8.85;;
76574;SDS011;65439;50.948;6.988;2023-04-06T00:44:58;13.80;;;9.65;;
76574;SDS011;65439;50.948;6.988;2023-04-06T00:47:24;12.23;;;8.65;;
76574;SDS011;65439;50.948;6.988;2023-04-06T00:49:50;15.38;;;9.98;;
76574;SDS011;65439;50.948;6.988;2023-04-06T00:52:16;13.05;;;9.27;;
76574;SDS011;65439;50.948;6.988;2023-04-06T00:54:41;17.35;;;10.25;;
76574;SDS011;65439;50.948;6.988;2023-04-06T00:57:06;15.93;;;9.27;;
76574;SDS011;65439;50.948;6.988;2023-04-06T00:59:32;14.13;;;9.13;;
76574;SDS011;65439;50.948;6.988;2023-04-06T01:01:57;11.38;;;8.73;;
76574;SDS011;65439;50.948;6.988;2023-04-06T01:04:23;12.07;;;8.80;;
76574;SDS011;65439;50.948;6.988;2023-04-06T01:06:49;11.73;;;8.80;;
76574;SDS011;65439;50.948;6.988;2023-04-06T01:09:15;13.73;;;9.50;;
76574;SDS011;65439;50.948;6.988;2023-04-06T01:11:40;12.02;;;9.75;;
76574;SDS011;65439;50.948;6.988;2023-04-06T01:14:06;13.07;;;9.07;;
76574;SDS011;65439;50.948;6.988;2023-04-06T01:16:31;15.23;;;8.77;;
76574;SDS011;65439;50.948;6.988;2023-04-06T01:18:56;12.38;;;8.27;;
76574;SDS011;65439;50.948;6.988;2023-04-06T01:21:22;15.17;;;9.90;;
76574;SDS011;65439;50.948;6.988;2023-04-06T01:23:47;17.73;;;7.67;;
76574;SDS011;65439;50.948;6.988;2023-04-06T01:26:12;11.03;;;7.53;;
76574;SDS011;65439;50.948;6.988;2023-04-06T01:28:38;12.68;;;8.88;;
76574;SDS011;65439;50.948;6.988;2023-04-06T01:31:04;11.23;;;8.77;;
76574;SDS011;65439;50.948;6.988;2023-04-06T01:33:31;10.32;;;7.70;;
76574;SDS011;65439;50.948;6.988;2023-04-06T01:35:56;10.57;;;7.50;;
76574;SDS011;65439;50.948;6.988;2023-04-06T01:38:22;15.87;;;8.77;;
76574;SDS011;65439;50.948;6.988;2023-04-06T01:40:47;11.53;;;8.83;;
76574;SDS011;65439;50.948;6.988;2023-04-06T01:43:12;12.53;;;7.93;;
76574;SDS011;65439;50.948;6.988;2023-04-06T01:45:37;10.38;;;7.65;;
76574;SDS011;65439;50.948;6.988;2023-04-06T01:48:03;10.03;;;8.57;;
76574;SDS011;65439;50.948;6.988;2023-04-06T01:50:28;8.95;;;7.70;;
76574;SDS011;65439;50.948;6.988;2023-04-06T01:52:53;12.97;;;8.43;;
76574;SDS011;65439;50.948;6.988;2023-04-06T01:55:19;12.77;;;8.15;;
76574;SDS011;65439;50.948;6.988;2023-04-06T01:57:45;10.18;;;7.32;;
76574;SDS011;65439;50.948;6.988;2023-04-06T02:00:10;12.40;;;6.87;;
76574;SDS011;65439;50.948;6.988;2023-04-06T02:02:36;12.43;;;8.63;;
76574;SDS011;65439;50.948;6.988;2023-04-06T02:05:01;10.73;;;7.43;;
76574;SDS011;65439;50.948;6.988;2023-04-06T02:07:26;11.00;;;6.93;;
76574;SDS011;65439;50.948;6.988;2023-04-06T02:09:53;11.77;;;7.33;;
76574;SDS011;65439;50.948;6.988;2023-04-06T02:12:19;10.98;;;7.63;;
76574;SDS011;65439;50.948;6.988;2023-04-06T02:14:45;16.03;;;8.93;;
76574;SDS011;65439;50.948;6.988;2023-04-06T02:17:10;12.37;;;6.87;;
76574;SDS011;65439;50.948;6.988;2023-04-06T02:19:35;11.57;;;7.27;;
76574;SDS011;65439;50.948;6.988;2023-04-06T02:22:01;12.80;;;9.63;;
76574;SDS011;65439;50.948;6.988;2023-04-06T02:24:26;12.82;;;7.53;;
76574;SDS011;65439;50.948;6.988;2023-04-06T02:26:51;12.20;;;8.77;;
76574;SDS011;65439;50.948;6.988;2023-04-06T02:29:17;14.73;;;8.20;;
76574;SDS011;65439;50.948;6.988;2023-04-06T02:31:42;14.90;;;9.03;;
76574;SDS011;65439;50.948;6.988;2023-04-06T02:34:07;12.17;;;8.07;;
76574;SDS011;65439;50.948;6.988;2023-04-06T02:36:35;10.45;;;7.35;;
76574;SDS011;65439;50.948;6.988;2023-04-06T02:39:01;9.97;;;7.90;;
76574;SDS011;65439;50.948;6.988;2023-04-06T02:41:26;12.63;;;7.50;;
76574;SDS011;65439;50.948;6.988;2023-04-06T02:43:51;9.97;;;8.37;;
76574;SDS011;65439;50.948;6.988;2023-04-06T02:46:16;8.57;;;6.70;;
76574;SDS011;65439;50.948;6.988;2023-04-06T02:48:42;12.77;;;7.70;;
76574;SDS011;65439;50.948;6.988;2023-04-06T02:51:07;12.50;;;7.83;;
76574;SDS011;65439;50.948;6.988;2023-04-06T02:53:32;10.70;;;7.40;;
76574;SDS011;65439;50.948;6.988;2023-04-06T02:55:59;12.38;;;7.60;;
76574;SDS011;65439;50.948;6.988;2023-04-06T02:58:24;10.73;;;7.40;;
76574;SDS011;65439;50.948;6.988;2023-04-06T03:00:50;11.63;;;7.25;;
76574;SDS011;65439;50.948;6.988;2023-04-06T03:03:15;14.63;;;8.30;;
76574;SDS011;65439;50.948;6.988;2023-04-06T03:05:40;10.83;;;7.63;;
76574;SDS011;65439;50.948;6.988;2023-04-06T03:08:05;9.90;;;8.20;;
76574;SDS011;65439;50.948;6.988;2023-04-06T03:10:31;11.43;;;7.53;;
76574;SDS011;65439;50.948;6.988;2023-04-06T03:12:56;8.23;;;7.40;;
76574;SDS011;65439;50.948;6.988;2023-04-06T03:15:21;11.20;;;8.20;;
76574;SDS011;65439;50.948;6.988;2023-04-06T03:17:47;8.57;;;6.87;;
76574;SDS011;65439;50.948;6.988;2023-04-06T03:20:12;13.77;;;8.37;;
76574;SDS011;65439;50.948;6.988;2023-04-06T03:22:37;13.40;;;7.50;;
76574;SDS011;65439;50.948;6.988;2023-04-06T03:25:03;12.90;;;8.47;;
76574;SDS011;65439;50.948;6.988;2023-04-06T03:27:28;13.52;;;8.77;;
76574;SDS011;65439;50.948;6.988;2023-04-06T03:29:53;11.83;;;8.97;;
76574;SDS011;65439;50.948;6.988;2023-04-06T03:32:19;14.10;;;8.27;;
76574;SDS011;65439;50.948;6.988;2023-04-06T03:34:44;14.90;;;7.90;;
76574;SDS011;65439;50.948;6.988;2023-04-06T03:37:09;11.35;;;8.35;;
76574;SDS011;65439;50.948;6.988;2023-04-06T03:39:35;9.60;;;6.93;;
76574;SDS011;65439;50.948;6.988;2023-04-06T03:42:00;13.88;;;8.68;;
76574;SDS011;65439;50.948;6.988;2023-04-06T03:44:25;12.83;;;8.23;;
76574;SDS011;65439;50.948;6.988;2023-04-06T03:46:51;13.30;;;9.00;;
76574;SDS011;65439;50.948;6.988;2023-04-06T03:49:16;12.17;;;7.50;;
76574;SDS011;65439;50.948;6.988;2023-04-06T03:51:41;10.25;;;7.85;;
76574;SDS011;65439;50.948;6.988;2023-04-06T03:54:07;13.07;;;8.67;;
76574;SDS011;65439;50.948;6.988;2023-04-06T03:56:32;13.30;;;8.97;;
76574;SDS011;65439;50.948;6.988;2023-04-06T03:58:57;16.20;;;9.73;;
76574;SDS011;65439;50.948;6.988;2023-04-06T04:01:22;10.60;;;8.80;;
76574;SDS011;65439;50.948;6.988;2023-04-06T04:03:48;16.17;;;8.83;;
76574;SDS011;65439;50.948;6.988;2023-04-06T04:06:13;17.97;;;10.20;;
76574;SDS011;65439;50.948;6.988;2023-04-06T04:08:38;11.20;;;7.53;;
76574;SDS011;65439;50.948;6.988;2023-04-06T04:11:04;14.65;;;7.20;;
76574;SDS011;65439;50.948;6.988;2023-04-06T04:13:29;13.63;;;7.72;;
76574;SDS011;65439;50.948;6.988;2023-04-06T04:15:55;11.05;;;8.23;;
76574;SDS011;65439;50.948;6.988;2023-04-06T04:18:20;11.73;;;7.87;;
76574;SDS011;65439;50.948;6.988;2023-04-06T04:20:45;13.53;;;8.03;;
76574;SDS011;65439;50.948;6.988;2023-04-06T04:23:11;12.40;;;8.83;;
76574;SDS011;65439;50.948;6.988;2023-04-06T04:25:36;14.23;;;7.33;;
76574;SDS011;65439;50.948;6.988;2023-04-06T04:28:01;12.40;;;8.53;;
76574;SDS011;65439;50.948;6.988;2023-04-06T04:30:27;15.30;;;8.40;;
76574;SDS011;65439;50.948;6.988;2023-04-06T04:32:52;15.27;;;7.57;;
76574;SDS011;65439;50.948;6.988;2023-04-06T04:35:18;10.00;;;7.82;;
76574;SDS011;65439;50.948;6.988;2023-04-06T04:37:43;12.27;;;8.53;;
76574;SDS011;65439;50.948;6.988;2023-04-06T04:40:08;13.55;;;8.35;;
76574;SDS011;65439;50.948;6.988;2023-04-06T04:42:34;12.88;;;7.93;;
76574;SDS011;65439;50.948;6.988;2023-04-06T04:45:00;9.93;;;6.83;;
76574;SDS011;65439;50.948;6.988;2023-04-06T04:47:25;13.95;;;7.72;;
76574;SDS011;65439;50.948;6.988;2023-04-06T04:49:50;10.63;;;7.90;;
76574;SDS011;65439;50.948;6.988;2023-04-06T04:52:15;13.57;;;8.50;;
76574;SDS011;65439;50.948;6.988;2023-04-06T04:54:41;10.73;;;7.33;;
76574;SDS011;65439;50.948;6.988;2023-04-06T04:57:06;13.00;;;8.23;;
76574;SDS011;65439;50.948;6.988;2023-04-06T04:59:32;11.75;;;8.23;;
76574;SDS011;65439;50.948;6.988;2023-04-06T05:01:57;13.07;;;7.88;;
76574;SDS011;65439;50.948;6.988;2023-04-06T05:04:22;13.03;;;8.43;;
76574;SDS011;65439;50.948;6.988;2023-04-06T05:06:48;10.75;;;6.68;;
76574;SDS011;65439;50.948;6.988;2023-04-06T05:09:13;11.37;;;7.47;;
76574;SDS011;65439;50.948;6.988;2023-04-06T05:11:39;16.17;;;7.07;;
76574;SDS011;65439;50.948;6.988;2023-04-06T05:14:04;14.15;;;9.10;;
76574;SDS011;65439;50.948;6.988;2023-04-06T05:16:31;13.02;;;7.32;;
76574;SDS011;65439;50.948;6.988;2023-04-06T05:18:56;12.23;;;7.90;;
76574;SDS011;65439;50.948;6.988;2023-04-06T05:21:21;10.02;;;6.75;;
76574;SDS011;65439;50.948;6.988;2023-04-06T05:23:47;10.57;;;7.57;;
76574;SDS011;65439;50.948;6.988;2023-04-06T05:26:12;16.47;;;9.10;;
76574;SDS011;65439;50.948;6.988;2023-04-06T05:28:37;13.98;;;7.40;;
76574;SDS011;65439;50.948;6.988;2023-04-06T05:31:03;12.82;;;8.15;;
76574;SDS011;65439;50.948;6.988;2023-04-06T05:33:28;14.82;;;7.60;;
76574;SDS011;65439;50.948;6.988;2023-04-06T05:35:53;14.57;;;8.55;;
76574;SDS011;65439;50.948;6.988;2023-04-06T05:38:19;18.27;;;7.97;;
76574;SDS011;65439;50.948;6.988;2023-04-06T05:40:44;13.80;;;8.18;;
76574;SDS011;65439;50.948;6.988;2023-04-06T05:43:10;11.33;;;7.87;;
76574;SDS011;65439;50.948;6.988;2023-04-06T05:45:35;15.10;;;7.63;;
76574;SDS011;65439;50.948;6.988;2023-04-06T05:48:01;14.40;;;9.23;;
76574;SDS011;65439;50.948;6.988;2023-04-06T05:50:27;17.98;;;8.90;;
76574;SDS011;65439;50.948;6.988;2023-04-06T05:52:52;12.40;;;8.07;;
76574;SDS011;65439;50.948;6.988;2023-04-06T05:55:17;12.63;;;8.17;;
76574;SDS011;65439;50.948;6.988;2023-04-06T05:57:43;14.60;;;7.68;;
76574;SDS011;65439;50.948;6.988;2023-04-06T06:00:11;14.00;;;8.05;;
76574;SDS011;65439;50.948;6.988;2023-04-06T06:02:37;11.93;;;7.68;;
76574;SDS011;65439;50.948;6.988;2023-04-06T06:05:04;11.43;;;7.82;;
76574;SDS011;65439;50.948;6.988;2023-04-06T06:07:29;16.30;;;8.85;;
76574;SDS011;65439;50.948;6.988;2023-04-06T06:09:57;12.57;;;8.23;;
76574;SDS011;65439;50.948;6.988;2023-04-06T06:12:23;14.05;;;8.52;;
76574;SDS011;65439;50.948;6.988;2023-04-06T06:14:48;18.05;;;8.77;;
76574;SDS011;65439;50.948;6.988;2023-04-06T06:17:14;14.73;;;9.75;;
76574;SDS011;65439;50.948;6.988;2023-04-06T06:19:40;12.55;;;7.90;;
76574;SDS011;65439;50.948;6.988;2023-04-06T06:22:05;11.77;;;8.60;;
76574;SDS011;65439;50.948;6.988;2023-04-06T06:24:30;10.52;;;8.02;;
76574;SDS011;65439;50.948;6.988;2023-04-06T06:26:56;12.40;;;8.18;;
76574;SDS011;65439;50.948;6.988;2023-04-06T06:29:21;10.93;;;8.57;;
76574;SDS011;65439;50.948;6.988;2023-04-06T06:31:48;9.38;;;7.32;;
76574;SDS011;65439;50.948;6.988;2023-04-06T06:34:14;8.60;;;6.93;;
76574;SDS011;65439;50.948;6.988;2023-04-06T06:36:39;11.68;;;7.43;;
76574;SDS011;65439;50.948;6.988;2023-04-06T06:39:05;12.57;;;8.27;;
76574;SDS011;65439;50.948;6.988;2023-04-06T06:41:30;12.57;;;7.43;;
76574;SDS011;65439;50.948;6.988;2023-04-06T06:43:55;12.43;;;7.43;;
76574;SDS011;65439;50.948;6.988;2023-04-06T06:46:20;10.50;;;7.57;;
76574;SDS011;65439;50.948;6.988;2023-04-06T06:48:46;12.13;;;7.77;;
76574;SDS011;65439;50.948;6.988;2023-04-06T06:51:11;10.20;;;7.27;;
76574;SDS011;65439;50.948;6.988;2023-04-06T06:53:37;9.57;;;7.20;;
76574;SDS011;65439;50.948;6.988;2023-04-06T06:56:02;12.68;;;7.30;;
76574;SDS011;65439;50.948;6.988;2023-04-06T06:58:27;11.00;;;8.15;;
76574;SDS011;65439;50.948;6.988;2023-04-06T07:00:59;10.07;;;7.20;;
76574;SDS011;65439;50.948;6.988;2023-04-06T07:03:24;13.30;;;7.97;;
76574;SDS011;65439;50.948;6.988;2023-04-06T07:05:50;11.88;;;7.70;;
76574;SDS011;65439;50.948;6.988;2023-04-06T07:08:22;13.15;;;7.75;;
76574;SDS011;65439;50.948;6.988;2023-04-06T07:10:48;10.00;;;8.07;;
76574;SDS011;65439;50.948;6.988;2023-04-06T07:13:17;11.80;;;7.90;;
76574;SDS011;65439;50.948;6.988;2023-04-06T07:15:46;16.95;;;7.78;;
76574;SDS011;65439;50.948;6.988;2023-04-06T07:18:12;11.23;;;7.03;;
76574;SDS011;65439;50.948;6.988;2023-04-06T07:20:37;10.07;;;8.35;;
76574;SDS011;65439;50.948;6.988;2023-04-06T07:23:02;11.30;;;7.27;;
76574;SDS011;65439;50.948;6.988;2023-04-06T07:25:28;15.63;;;9.57;;
76574;SDS011;65439;50.948;6.988;2023-04-06T07:27:53;13.55;;;8.57;;
76574;SDS011;65439;50.948;6.988;2023-04-06T07:30:18;11.57;;;7.20;;
76574;SDS011;65439;50.948;6.988;2023-04-06T07:32:46;9.13;;;6.78;;
76574;SDS011;65439;50.948;6.988;2023-04-06T07:35:12;13.38;;;8.10;;
76574;SDS011;65439;50.948;6.988;2023-04-06T07:37:37;10.63;;;8.03;;
76574;SDS011;65439;50.948;6.988;2023-04-06T07:40:03;10.60;;;8.73;;
76574;SDS011;65439;50.948;6.988;2023-04-06T07:42:28;11.95;;;8.95;;
76574;SDS011;65439;50.948;6.988;2023-04-06T07:44:53;14.10;;;9.18;;
76574;SDS011;65439;50.948;6.988;2023-04-06T07:47:19;10.82;;;8.13;;
76574;SDS011;65439;50.948;6.988;2023-04-06T07:49:44;9.77;;;7.70;;
76574;SDS011;65439;50.948;6.988;2023-04-06T07:52:10;10.63;;;8.05;;
76574;SDS011;65439;50.948;6.988;2023-04-06T07:54:37;12.80;;;7.90;;
76574;SDS011;65439;50.948;6.988;2023-04-06T07:57:05;11.95;;;7.85;;
76574;SDS011;65439;50.948;6.988;2023-04-06T07:59:31;12.65;;;8.80;;
76574;SDS011;65439;50.948;6.988;2023-04-06T08:01:56;11.43;;;8.37;;
76574;SDS011;65439;50.948;6.988;2023-04-06T08:04:21;12.83;;;8.30;;
76574;SDS011;65439;50.948;6.988;2023-04-06T08:06:46;13.70;;;9.90;;
76574;SDS011;65439;50.948;6.988;2023-04-06T08:09:12;12.33;;;8.73;;
76574;SDS011;65439;50.948;6.988;2023-04-06T08:11:37;14.90;;;9.77;;
76574;SDS011;65439;50.948;6.988;2023-04-06T08:14:02;13.17;;;8.73;;
76574;SDS011;65439;50.948;6.988;2023-04-06T08:16:28;12.43;;;9.23;;
76574;SDS011;65439;50.948;6.988;2023-04-06T08:18:53;14.57;;;9.18;;
76574;SDS011;65439;50.948;6.988;2023-04-06T08:21:18;15.43;;;9.53;;
76574;SDS011;65439;50.948;6.988;2023-04-06T08:23:46;11.43;;;8.23;;
76574;SDS011;65439;50.948;6.988;2023-04-06T08:26:12;11.50;;;7.43;;
76574;SDS011;65439;50.948;6.988;2023-04-06T08:28:37;16.23;;;9.27;;
76574;SDS011;65439;50.948;6.988;2023-04-06T08:31:06;14.18;;;8.93;;
76574;SDS011;65439;50.948;6.988;2023-04-06T08:33:32;11.75;;;8.85;;
76574;SDS011;65439;50.948;6.988;2023-04-06T08:36:06;14.68;;;9.98;;
76574;SDS011;65439;50.948;6.988;2023-04-06T08:38:32;13.45;;;8.88;;
76574;SDS011;65439;50.948;6.988;2023-04-06T08:40:57;12.93;;;9.70;;
76574;SDS011;65439;50.948;6.988;2023-04-06T08:43:23;13.77;;;10.40;;
76574;SDS011;65439;50.948;6.988;2023-04-06T08:45:48;12.07;;;8.93;;
76574;SDS011;65439;50.948;6.988;2023-04-06T08:48:14;14.73;;;9.23;;
76574;SDS011;65439;50.948;6.988;2023-04-06T08:50:39;14.18;;;8.18;;
76574;SDS011;65439;50.948;6.988;2023-04-06T08:53:06;15.15;;;9.13;;
76574;SDS011;65439;50.948;6.988;2023-04-06T08:57:57;17.70;;;9.97;;
76574;SDS011;65439;50.948;6.988;2023-04-06T09:00:24;16.80;;;10.00;;
76574;SDS011;65439;50.948;6.988;2023-04-06T09:02:50;17.40;;;9.35;;
76574;SDS011;65439;50.948;6.988;2023-04-06T09:05:19;14.35;;;9.90;;
76574;SDS011;65439;50.948;6.988;2023-04-06T09:07:44;14.55;;;9.35;;
76574;SDS011;65439;50.948;6.988;2023-04-06T09:10:10;12.90;;;9.23;;
76574;SDS011;65439;50.948;6.988;2023-04-06T09:12:35;16.90;;;10.40;;
76574;SDS011;65439;50.948;6.988;2023-04-06T09:15:01;13.75;;;10.15;;
76574;SDS011;65439;50.948;6.988;2023-04-06T09:17:28;14.32;;;9.77;;
76574;SDS011;65439;50.948;6.988;2023-04-06T09:19:54;15.20;;;9.98;;
76574;SDS011;65439;50.948;6.988;2023-04-06T09:22:20;19.33;;;10.27;;
76574;SDS011;65439;50.948;6.988;2023-04-06T09:24:46;16.48;;;9.90;;
76574;SDS011;65439;50.948;6.988;2023-04-06T09:29:38;16.07;;;11.17;;
76574;SDS011;65439;50.948;6.988;2023-04-06T09:32:06;14.30;;;9.63;;
76574;SDS011;65439;50.948;6.988;2023-04-06T09:34:38;17.55;;;10.57;;
76574;SDS011;65439;50.948;6.988;2023-04-06T09:37:17;18.38;;;10.57;;
76574;SDS011;65439;50.948;6.988;2023-04-06T09:39:46;16.60;;;10.35;;
76574;SDS011;65439;50.948;6.988;2023-04-06T09:42:23;14.60;;;10.70;;
76574;SDS011;65439;50.948;6.988;2023-04-06T09:45:05;17.05;;;11.73;;
76574;SDS011;65439;50.948;6.988;2023-04-06T09:47:58;15.60;;;11.90;;
76574;SDS011;65439;50.948;6.988;2023-04-06T09:50:30;17.95;;;10.75;;
76574;SDS011;65439;50.948;6.988;2023-04-06T09:53:09;14.93;;;8.80;;
76574;SDS011;65439;50.948;6.988;2023-04-06T09:55:43;14.02;;;9.98;;
76574;SDS011;65439;50.948;6.988;2023-04-06T09:58:23;14.75;;;9.38;;
76574;SDS011;65439;50.948;6.988;2023-04-06T10:01:22;14.23;;;8.88;;
76574;SDS011;65439;50.948;6.988;2023-04-06T10:06:59;18.90;;;12.27;;
76574;SDS011;65439;50.948;6.988;2023-04-06T10:09:28;15.18;;;10.13;;
76574;SDS011;65439;50.948;6.988;2023-04-06T10:12:04;14.98;;;10.45;;
76574;SDS011;65439;50.948;6.988;2023-04-06T10:14:42;17.85;;;10.57;;
76574;SDS011;65439;50.948;6.988;2023-04-06T10:23:42;15.95;;;10.13;;
76574;SDS011;65439;50.948;6.988;2023-04-06T10:26:38;15.07;;;10.15;;
76574;SDS011;65439;50.948;6.988;2023-04-06T10:29:04;18.90;;;11.10;;
76574;SDS011;65439;50.948;6.988;2023-04-06T10:31:39;15.73;;;10.15;;
76574;SDS011;65439;50.948;6.988;2023-04-06T10:34:08;17.35;;;9.75;;
76574;SDS011;65439;50.948;6.988;2023-04-06T10:36:59;15.90;;;9.80;;
76574;SDS011;65439;50.948;6.988;2023-04-06T10:39:45;19.77;;;11.20;;
76574;SDS011;65439;50.948;6.988;2023-04-06T10:42:35;14.77;;;9.90;;
76574;SDS011;65439;50.948;6.988;2023-04-06T10:45:07;14.82;;;10.38;;
76574;SDS011;65439;50.948;6.988;2023-04-06T10:48:18;19.48;;;10.77;;
76574;SDS011;65439;50.948;6.988;2023-04-06T10:50:51;14.93;;;10.30;;
76574;SDS011;65439;50.948;6.988;2023-04-06T10:53:26;20.20;;;10.70;;
76574;SDS011;65439;50.948;6.988;2023-04-06T10:56:04;15.35;;;10.05;;
76574;SDS011;65439;50.948;6.988;2023-04-06T10:58:48;20.85;;;9.98;;
76574;SDS011;65439;50.948;6.988;2023-04-06T11:01:19;17.02;;;11.25;;
76574;SDS011;65439;50.948;6.988;2023-04-06T11:04:05;17.70;;;10.45;;
76574;SDS011;65439;50.948;6.988;2023-04-06T11:06:51;16.88;;;11.18;;
76574;SDS011;65439;50.948;6.988;2023-04-06T11:09:26;16.73;;;9.50;;
76574;SDS011;65439;50.948;6.988;2023-04-06T11:12:07;17.48;;;11.07;;
76574;SDS011;65439;50.948;6.988;2023-04-06T11:15:03;17.48;;;9.10;;
76574;SDS011;65439;50.948;6.988;2023-04-06T11:17:52;19.63;;;10.45;;
76574;SDS011;65439;50.948;6.988;2023-04-06T11:21:06;18.20;;;11.80;;
76574;SDS011;65439;50.948;6.988;2023-04-06T11:24:12;17.33;;;10.52;;
76574;SDS011;65439;50.948;6.988;2023-04-06T11:29:17;19.73;;;9.50;;
76574;SDS011;65439;50.948;6.988;2023-04-06T11:31:50;18.88;;;10.32;;
76574;SDS011;65439;50.948;6.988;2023-04-06T11:34:17;18.38;;;11.00;;
76574;SDS011;65439;50.948;6.988;2023-04-06T11:36:45;20.33;;;9.45;;
76574;SDS011;65439;50.948;6.988;2023-04-06T11:39:12;16.20;;;8.85;;
76574;SDS011;65439;50.948;6.988;2023-04-06T11:41:38;20.33;;;11.77;;
76574;SDS011;65439;50.948;6.988;2023-04-06T11:44:04;15.15;;;9.57;;
76574;SDS011;65439;50.948;6.988;2023-04-06T11:46:30;14.63;;;10.07;;
76574;SDS011;65439;50.948;6.988;2023-04-06T11:48:59;18.33;;;10.43;;
76574;SDS011;65439;50.948;6.988;2023-04-06T11:51:26;15.20;;;10.10;;
76574;SDS011;65439;50.948;6.988;2023-04-06T11:53:52;20.35;;;9.98;;
76574;SDS011;65439;50.948;6.988;2023-04-06T11:56:26;14.88;;;9.35;;
76574;SDS011;65439;50.948;6.988;2023-04-06T11:59:01;15.77;;;9.27;;
76574;SDS011;65439;50.948;6.988;2023-04-06T12:01:27;20.33;;;10.20;;
76574;SDS011;65439;50.948;6.988;2023-04-06T12:03:55;17.05;;;10.77;;
76574;SDS011;65439;50.948;6.988;2023-04-06T12:06:21;16.35;;;9.45;;
76574;SDS011;65439;50.948;6.988;2023-04-06T12:08:46;15.25;;;8.60;;
76574;SDS011;65439;50.948;6.988;2023-04-06T12:11:12;15.90;;;9.70;;
76574;SDS011;65439;50.948;6.988;2023-04-06T12:13:37;15.57;;;10.35;;
76574;SDS011;65439;50.948;6.988;2023-04-06T12:16:11;18.45;;;9.43;;
76574;SDS011;65439;50.948;6.988;2023-04-06T12:18:42;15.90;;;9.73;;
76574;SDS011;65439;50.948;6.988;2023-04-06T12:21:13;15.40;;;8.73;;
76574;SDS011;65439;50.948;6.988;2023-04-06T12:23:38;14.15;;;9.52;;
76574;SDS011;65439;50.948;6.988;2023-04-06T12:26:07;16.38;;;10.13;;
76574;SDS011;65439;50.948;6.988;2023-04-06T12:28:32;13.57;;;9.15;;
76574;SDS011;65439;50.948;6.988;2023-04-06T12:30:57;11.82;;;8.10;;
76574;SDS011;65439;50.948;6.988;2023-04-06T12:33:25;12.38;;;7.82;;
76574;SDS011;65439;50.948;6.988;2023-04-06T12:35:53;13.60;;;8.45;;
76574;SDS011;65439;50.948;6.988;2023-04-06T12:38:25;13.82;;;9.38;;
76574;SDS011;65439;50.948;6.988;2023-04-06T12:40:51;12.48;;;8.80;;
76574;SDS011;65439;50.948;6.988;2023-04-06T12:43:19;15.27;;;8.38;;
76574;SDS011;65439;50.948;6.988;2023-04-06T12:45:47;13.90;;;8.65;;
76574;SDS011;65439;50.948;6.988;2023-04-06T12:48:16;10.93;;;7.63;;
76574;SDS011;65439;50.948;6.988;2023-04-06T12:50:44;13.32;;;8.32;;
76574;SDS011;65439;50.948;6.988;2023-04-06T12:53:20;12.10;;;7.70;;
76574;SDS011;65439;50.948;6.988;2023-04-06T12:55:48;15.15;;;7.57;;
76574;SDS011;65439;50.948;6.988;2023-04-06T12:58:13;9.63;;;6.55;;
76574;SDS011;65439;50.948;6.988;2023-04-06T13:00:49;13.70;;;7.65;;
76574;SDS011;65439;50.948;6.988;2023-04-06T13:06:24;8.75;;;6.78;;
76574;SDS011;65439;50.948;6.988;2023-04-06T13:08:57;13.18;;;7.75;;
76574;SDS011;65439;50.948;6.988;2023-04-06T13:15:00;11.95;;;8.57;;
76574;SDS011;65439;50.948;6.988;2023-04-06T13:17:34;9.98;;;7.35;;
76574;SDS011;65439;50.948;6.988;2023-04-06T13:21:04;9.13;;;6.53;;
76574;SDS011;65439;50.948;6.988;2023-04-06T13:23:50;11.38;;;6.78;;
76574;SDS011;65439;50.948;6.988;2023-04-06T13:26:35;10.45;;;7.45;;
76574;SDS011;65439;50.948;6.988;2023-04-06T13:29:04;12.27;;;8.05;;
76574;SDS011;65439;50.948;6.988;2023-04-06T13:31:32;10.65;;;7.63;;
76574;SDS011;65439;50.948;6.988;2023-04-06T13:34:01;10.38;;;7.68;;
76574;SDS011;65439;50.948;6.988;2023-04-06T13:36:36;12.10;;;7.60;;
76574;SDS011;65439;50.948;6.988;2023-04-06T13:39:11;12.07;;;7.93;;
76574;SDS011;65439;50.948;6.988;2023-04-06T13:41:42;11.30;;;7.45;;
76574;SDS011;65439;50.948;6.988;2023-04-06T13:44:13;12.27;;;8.20;;
76574;SDS011;65439;50.948;6.988;2023-04-06T13:46:38;22.75;;;9.57;;
76574;SDS011;65439;50.948;6.988;2023-04-06T13:49:24;16.10;;;7.53;;
76574;SDS011;65439;50.948;6.988;2023-04-06T13:52:01;10.80;;;7.45;;
76574;SDS011;65439;50.948;6.988;2023-04-06T13:54:41;10.57;;;6.47;;
76574;SDS011;65439;50.948;6.988;2023-04-06T13:57:12;18.83;;;6.68;;
76574;SDS011;65439;50.948;6.988;2023-04-06T13:59:38;9.95;;;5.85;;
76574;SDS011;65439;50.948;6.988;2023-04-06T14:04:35;12.93;;;6.15;;
76574;SDS011;65439;50.948;6.988;2023-04-06T14:07:04;13.32;;;7.10;;
76574;SDS011;65439;50.948;6.988;2023-04-06T14:09:40;11.20;;;7.13;;
76574;SDS011;65439;50.948;6.988;2023-04-06T14:12:08;11.75;;;7.22;;
76574;SDS011;65439;50.948;6.988;2023-04-06T14:14:36;11.48;;;7.68;;
76574;SDS011;65439;50.948;6.988;2023-04-06T14:17:15;13.02;;;8.20;;
76574;SDS011;65439;50.948;6.988;2023-04-06T14:19:51;14.18;;;7.60;;
76574;SDS011;65439;50.948;6.988;2023-04-06T14:22:21;12.82;;;8.38;;
76574;SDS011;65439;50.948;6.988;2023-04-06T14:24:50;13.07;;;7.40;;
76574;SDS011;65439;50.948;6.988;2023-04-06T14:27:15;13.07;;;7.60;;
76574;SDS011;65439;50.948;6.988;2023-04-06T14:29:41;9.77;;;6.82;;
76574;SDS011;65439;50.948;6.988;2023-04-06T14:32:11;10.88;;;7.15;;
76574;SDS011;65439;50.948;6.988;2023-04-06T14:34:39;13.02;;;7.82;;
76574;SDS011;65439;50.948;6.988;2023-04-06T14:37:04;12.50;;;6.72;;
76574;SDS011;65439;50.948;6.988;2023-04-06T14:39:32;11.43;;;6.15;;
76574;SDS011;65439;50.948;6.988;2023-04-06T14:41:58;7.78;;;5.53;;
76574;SDS011;65439;50.948;6.988;2023-04-06T14:44:26;9.18;;;6.13;;
76574;SDS011;65439;50.948;6.988;2023-04-06T14:46:55;8.05;;;6.25;;
76574;SDS011;65439;50.948;6.988;2023-04-06T14:49:20;7.53;;;5.95;;
76574;SDS011;65439;50.948;6.988;2023-04-06T14:51:50;8.18;;;6.28;;
76574;SDS011;65439;50.948;6.988;2023-04-06T14:54:18;10.32;;;6.70;;
76574;SDS011;65439;50.948;6.988;2023-04-06T14:56:44;8.05;;;6.25;;
76574;SDS011;65439;50.948;6.988;2023-04-06T14:59:21;10.38;;;6.60;;
76574;SDS011;65439;50.948;6.988;2023-04-06T15:01:55;7.95;;;6.70;;
76574;SDS011;65439;50.948;6.988;2023-04-06T15:04:39;9.35;;;7.50;;
76574;SDS011;65439;50.948;6.988;2023-04-06T15:07:05;13.63;;;6.93;;